createdAt,value
2018-10-06T00:00:34.844Z,12.90
2018-10-06T00:03:03.535Z,13.00
2018-10-06T00:05:31.998Z,12.90
2018-10-06T00:08:00.562Z,13.00
2018-10-06T00:10:28.977Z,12.90
2018-10-06T00:12:57.566Z,12.90
2018-10-06T00:15:26.060Z,12.90
2018-10-06T00:17:54.619Z,12.90
2018-10-06T00:20:23.368Z,12.90
2018-10-06T00:22:51.888Z,12.80
2018-10-06T00:25:20.430Z,12.80
2018-10-06T00:27:48.968Z,12.70
2018-10-06T00:30:17.592Z,12.70
2018-10-06T00:32:46.208Z,12.70
2018-10-06T00:35:14.741Z,12.70
2018-10-06T00:37:43.361Z,12.60
2018-10-06T00:40:11.994Z,12.60
2018-10-06T00:42:40.480Z,12.60
2018-10-06T00:45:08.967Z,12.60
2018-10-06T00:47:37.432Z,12.50
2018-10-06T00:50:06.014Z,12.50
2018-10-06T00:52:34.551Z,12.50
2018-10-06T00:55:03.000Z,12.50
2018-10-06T00:57:31.554Z,12.50
2018-10-06T01:00:00.083Z,12.50
2018-10-06T01:02:28.586Z,12.50
2018-10-06T01:04:57.014Z,12.40
2018-10-06T01:07:25.519Z,12.40
2018-10-06T01:09:54.179Z,12.40
2018-10-06T01:12:22.672Z,12.40
2018-10-06T01:14:51.193Z,12.30
2018-10-06T01:17:19.688Z,12.30
2018-10-06T01:19:48.516Z,12.20
2018-10-06T01:22:16.982Z,12.10
2018-10-06T01:24:45.711Z,12.10
2018-10-06T01:27:14.358Z,12.00
2018-10-06T01:29:42.847Z,11.90
2018-10-06T01:32:11.295Z,11.80
2018-10-06T01:34:39.808Z,11.80
2018-10-06T01:37:08.354Z,11.70
2018-10-06T01:39:36.819Z,11.60
2018-10-06T01:42:05.437Z,11.60
2018-10-06T01:44:33.942Z,11.50
2018-10-06T01:47:02.388Z,11.50
2018-10-06T01:49:31.043Z,11.40
2018-10-06T01:51:59.510Z,11.40
2018-10-06T01:54:28.079Z,11.30
2018-10-06T01:56:56.639Z,11.40
2018-10-06T01:59:25.324Z,11.40
2018-10-06T02:01:53.787Z,11.40
2018-10-06T02:04:25.098Z,11.40
2018-10-06T02:06:54.811Z,11.50
2018-10-06T02:09:23.429Z,11.50
2018-10-06T02:11:52.444Z,11.50
2018-10-06T02:14:21.141Z,11.60
2018-10-06T02:16:49.735Z,11.60
2018-10-06T02:19:18.400Z,11.60
2018-10-06T02:21:46.935Z,11.60
2018-10-06T02:24:15.354Z,11.60
2018-10-06T02:26:43.868Z,11.50
2018-10-06T02:29:12.305Z,11.50
2018-10-06T02:31:40.761Z,11.50
2018-10-06T02:34:09.370Z,11.40
2018-10-06T02:36:37.874Z,11.40
2018-10-06T02:39:06.985Z,11.30
2018-10-06T02:41:35.505Z,11.30
2018-10-06T02:44:03.979Z,11.30
2018-10-06T02:46:32.645Z,11.30
2018-10-06T02:49:01.245Z,11.30
2018-10-06T02:51:29.848Z,11.20
2018-10-06T02:53:58.650Z,11.20
2018-10-06T02:56:27.251Z,11.20
2018-10-06T02:58:55.804Z,11.20
2018-10-06T03:01:24.314Z,11.20
2018-10-06T03:03:52.781Z,11.20
2018-10-06T03:06:21.277Z,11.30
2018-10-06T03:08:49.740Z,11.30
2018-10-06T03:11:18.412Z,11.30
2018-10-06T03:13:46.849Z,11.40
2018-10-06T03:16:15.420Z,11.40
2018-10-06T03:18:43.863Z,11.40
2018-10-06T03:21:12.533Z,11.40
2018-10-06T03:23:41.010Z,11.30
2018-10-06T03:26:11.402Z,11.30
2018-10-06T03:28:39.868Z,11.30
2018-10-06T03:31:08.374Z,11.30
2018-10-06T03:33:37.005Z,11.20
2018-10-06T03:36:06.252Z,11.20
2018-10-06T03:38:34.704Z,11.20
2018-10-06T03:41:03.224Z,11.10
2018-10-06T03:43:31.793Z,11.10
2018-10-06T03:46:00.542Z,11.00
2018-10-06T03:48:29.335Z,11.00
2018-10-06T03:50:58.270Z,10.90
2018-10-06T03:53:26.708Z,10.90
2018-10-06T03:55:55.341Z,10.80
2018-10-06T03:58:23.966Z,10.80
2018-10-06T04:00:52.634Z,10.70
2018-10-06T04:03:21.213Z,10.70
2018-10-06T04:05:49.922Z,10.70
2018-10-06T04:08:18.456Z,10.60
2018-10-06T04:10:47.133Z,10.60
2018-10-06T04:13:15.642Z,10.60
2018-10-06T04:15:44.302Z,10.50
2018-10-06T04:18:13.136Z,10.50
2018-10-06T04:20:41.671Z,10.50
2018-10-06T04:23:10.239Z,10.50
2018-10-06T04:25:38.980Z,10.40
2018-10-06T04:28:07.644Z,10.40
2018-10-06T04:30:42.977Z,10.40
2018-10-06T04:33:12.074Z,10.30
2018-10-06T04:35:41.001Z,10.30
2018-10-06T04:38:09.857Z,10.30
2018-10-06T04:40:38.741Z,10.20
2018-10-06T04:43:07.532Z,10.20
2018-10-06T04:45:36.277Z,10.20
2018-10-06T04:48:04.861Z,10.20
2018-10-06T04:50:33.347Z,10.20
2018-10-06T04:53:01.919Z,10.20
2018-10-06T04:55:30.803Z,10.20
2018-10-06T04:57:59.608Z,10.10
2018-10-06T05:00:28.233Z,10.10
2018-10-06T05:02:56.777Z,10.10
2018-10-06T05:05:25.321Z,10.10
2018-10-06T05:07:54.252Z,10.10
2018-10-06T05:10:22.905Z,10.00
2018-10-06T05:12:51.536Z,10.00
2018-10-06T05:15:19.992Z,10.00
2018-10-06T05:17:48.494Z,10.00
2018-10-06T05:20:17.150Z,10.00
2018-10-06T05:22:45.827Z,9.90
2018-10-06T05:25:14.467Z,9.90
2018-10-06T05:27:43.364Z,9.90
2018-10-06T05:30:11.929Z,9.90
2018-10-06T05:32:40.669Z,9.90
2018-10-06T05:35:09.812Z,9.90
2018-10-06T05:37:38.561Z,9.90
2018-10-06T05:40:07.823Z,9.90
2018-10-06T05:42:36.596Z,9.90
2018-10-06T05:45:05.898Z,9.90
2018-10-06T05:47:34.678Z,10.00
2018-10-06T05:50:03.152Z,10.00
2018-10-06T05:52:32.089Z,10.10
2018-10-06T05:55:00.905Z,10.10
2018-10-06T05:57:29.703Z,10.10
2018-10-06T05:59:58.778Z,10.10
2018-10-06T06:02:27.571Z,10.10
2018-10-06T06:04:56.589Z,10.20
2018-10-06T06:07:25.592Z,10.30
2018-10-06T06:09:54.297Z,10.30
2018-10-06T06:12:22.958Z,10.40
2018-10-06T06:14:51.629Z,10.40
2018-10-06T06:17:20.675Z,10.50
2018-10-06T06:19:49.517Z,10.60
2018-10-06T06:22:17.971Z,10.70
2018-10-06T06:24:46.604Z,10.70
2018-10-06T06:27:15.194Z,10.90
2018-10-06T06:29:43.783Z,11.00
2018-10-06T06:32:12.325Z,11.20
2018-10-06T06:34:41.121Z,11.40
2018-10-06T06:37:09.656Z,11.50
2018-10-06T06:39:38.300Z,11.70
2018-10-06T06:42:07.216Z,12.00
2018-10-06T06:44:35.889Z,12.40
2018-10-06T06:47:04.523Z,12.90
2018-10-06T06:49:33.117Z,13.30
2018-10-06T06:52:01.559Z,13.50
2018-10-06T06:54:30.318Z,13.90
2018-10-06T06:56:58.965Z,14.40
2018-10-06T06:59:27.874Z,15.30
2018-10-06T07:01:56.888Z,16.20
2018-10-06T07:04:25.402Z,17.30
2018-10-06T07:06:54.133Z,18.40
2018-10-06T07:09:22.793Z,19.40
2018-10-06T07:11:51.681Z,20.30
2018-10-06T07:14:20.485Z,21.00
2018-10-06T07:16:49.239Z,21.50
2018-10-06T07:19:17.759Z,22.00
2018-10-06T07:21:46.465Z,22.30
2018-10-06T07:24:14.905Z,22.50
2018-10-06T07:26:43.400Z,22.50
2018-10-06T07:29:11.899Z,22.50
2018-10-06T07:31:40.371Z,22.70
2018-10-06T07:34:08.921Z,22.80
2018-10-06T07:36:37.483Z,23.00
2018-10-06T07:39:07.220Z,23.20
2018-10-06T07:41:36.060Z,23.60
2018-10-06T07:44:04.634Z,23.90
2018-10-06T07:46:33.271Z,23.90
2018-10-06T07:49:02.069Z,24.10
2018-10-06T07:51:30.921Z,24.30
2018-10-06T07:53:59.762Z,24.60
2018-10-06T07:56:28.339Z,24.70
2018-10-06T07:58:57.274Z,24.70
2018-10-06T08:01:26.130Z,25.00
2018-10-06T08:03:55.077Z,25.50
2018-10-06T08:06:23.623Z,25.80
2018-10-06T08:08:52.154Z,26.10
2018-10-06T08:11:20.841Z,26.50
2018-10-06T08:13:49.370Z,26.90
2018-10-06T08:16:18.026Z,27.20
2018-10-06T08:18:46.502Z,27.40
2018-10-06T08:21:15.137Z,27.60
2018-10-06T08:23:43.785Z,27.80
2018-10-06T08:26:12.270Z,27.90
2018-10-06T08:28:41.044Z,27.60
2018-10-06T08:31:09.740Z,27.60
2018-10-06T08:33:38.406Z,27.60
2018-10-06T08:36:07.316Z,27.80
2018-10-06T08:38:35.907Z,27.90
2018-10-06T08:41:05.162Z,28.30
2018-10-06T08:43:33.658Z,28.40
2018-10-06T08:46:02.480Z,28.60
2018-10-06T08:48:31.210Z,28.80
2018-10-06T08:50:59.959Z,29.10
2018-10-06T08:53:28.825Z,29.20
2018-10-06T08:55:57.805Z,29.30
2018-10-06T08:58:26.577Z,29.30
2018-10-06T09:00:55.384Z,29.20
2018-10-06T09:03:24.077Z,29.10
2018-10-06T09:05:52.593Z,29.00
2018-10-06T09:08:21.229Z,29.20
2018-10-06T09:10:50.042Z,29.00
2018-10-06T09:13:18.620Z,28.80
2018-10-06T09:15:47.082Z,28.90
2018-10-06T09:18:15.863Z,29.30
2018-10-06T09:20:44.313Z,29.30
2018-10-06T09:23:13.029Z,29.30
2018-10-06T09:25:41.740Z,29.40
2018-10-06T09:28:10.655Z,29.60
2018-10-06T09:30:40.350Z,29.80
2018-10-06T09:33:09.100Z,29.60
2018-10-06T09:35:37.625Z,29.80
2018-10-06T09:38:06.513Z,30.10
2018-10-06T09:40:35.255Z,30.60
2018-10-06T09:43:04.039Z,30.90
2018-10-06T09:45:32.743Z,30.90
2018-10-06T09:48:01.384Z,31.00
2018-10-06T09:50:30.181Z,31.10
2018-10-06T09:52:58.715Z,31.00
2018-10-06T09:55:27.863Z,31.10
2018-10-06T09:57:56.433Z,31.40
2018-10-06T10:03:23.589Z,31.80
2018-10-06T10:05:54.002Z,32.10
2018-10-06T10:08:25.817Z,31.90
2018-10-06T10:10:56.298Z,31.80
2018-10-06T10:13:24.973Z,32.00
2018-10-06T10:15:53.617Z,32.40
2018-10-06T10:18:22.585Z,32.60
2018-10-06T10:20:51.350Z,32.60
2018-10-06T10:23:20.346Z,32.40
2018-10-06T10:25:49.105Z,31.90
2018-10-06T10:28:17.742Z,31.40
2018-10-06T10:30:46.563Z,31.10
2018-10-06T10:33:15.530Z,31.00
2018-10-06T10:35:44.250Z,30.70
2018-10-06T10:38:12.689Z,30.50
2018-10-06T10:40:41.820Z,30.30
2018-10-06T10:43:10.310Z,29.90
2018-10-06T10:45:38.872Z,29.30
2018-10-06T10:48:07.924Z,28.80
2018-10-06T10:50:36.540Z,28.30
2018-10-06T10:53:05.071Z,27.90
2018-10-06T10:55:33.944Z,27.40
2018-10-06T10:58:02.766Z,27.00
2018-10-06T11:00:31.679Z,26.80
2018-10-06T11:03:00.306Z,26.30
2018-10-06T11:05:29.177Z,26.10
2018-10-06T11:07:58.040Z,25.90
2018-10-06T11:10:26.830Z,25.80
2018-10-06T11:12:55.892Z,25.70
2018-10-06T11:15:24.616Z,25.70
2018-10-06T11:17:53.630Z,25.80
2018-10-06T11:20:22.152Z,25.80
2018-10-06T11:22:50.936Z,25.70
2018-10-06T11:25:19.616Z,25.70
2018-10-06T11:27:48.449Z,25.60
2018-10-06T11:30:17.052Z,25.50
2018-10-06T11:32:46.058Z,25.60
2018-10-06T11:35:14.673Z,25.60
2018-10-06T11:37:43.452Z,25.70
2018-10-06T11:40:12.314Z,25.70
2018-10-06T11:42:41.860Z,25.80
2018-10-06T11:45:10.833Z,25.70
2018-10-06T11:47:39.699Z,25.60
2018-10-06T11:50:08.360Z,25.60
2018-10-06T11:52:37.212Z,25.60
2018-10-06T11:55:06.261Z,25.60
2018-10-06T11:57:34.995Z,25.50
2018-10-06T12:00:03.981Z,25.40
2018-10-06T12:02:32.334Z,25.50
2018-10-06T12:05:00.994Z,25.60
2018-10-06T12:07:30.142Z,25.50
2018-10-06T12:09:59.520Z,25.50
2018-10-06T12:12:28.365Z,25.50
2018-10-06T12:14:57.118Z,25.50
2018-10-06T12:17:25.887Z,25.60
2018-10-06T12:19:54.524Z,25.70
2018-10-06T12:22:23.267Z,25.80
2018-10-06T12:24:51.737Z,25.90
2018-10-06T12:27:20.489Z,26.00
2018-10-06T12:29:49.360Z,26.00
2018-10-06T12:32:18.026Z,26.00
2018-10-06T12:34:46.683Z,26.00
2018-10-06T12:37:15.413Z,26.00
2018-10-06T12:39:44.454Z,26.10
2018-10-06T12:42:13.106Z,26.10
2018-10-06T12:44:41.666Z,26.10
2018-10-06T12:47:10.361Z,26.20
2018-10-06T12:49:39.251Z,26.20
2018-10-06T12:52:07.820Z,26.20
2018-10-06T12:54:36.412Z,26.30
2018-10-06T12:57:05.421Z,26.40
2018-10-06T12:59:34.030Z,26.40
2018-10-06T13:02:02.670Z,26.40
2018-10-06T13:04:31.315Z,26.40
2018-10-06T13:07:00.433Z,26.30
2018-10-06T13:09:30.320Z,26.30
2018-10-06T13:11:59.085Z,26.30
2018-10-06T13:14:27.635Z,26.40
2018-10-06T13:16:56.647Z,26.50
2018-10-06T13:19:25.246Z,26.50
2018-10-06T13:21:53.729Z,26.50
2018-10-06T13:24:22.672Z,26.60
2018-10-06T13:26:51.427Z,26.60
2018-10-06T13:29:20.232Z,26.70
2018-10-06T13:31:48.949Z,26.70
2018-10-06T13:34:17.502Z,26.70
2018-10-06T13:36:46.136Z,26.70
2018-10-06T13:39:15.303Z,26.70
2018-10-06T13:41:44.209Z,26.80
2018-10-06T13:44:12.982Z,26.90
2018-10-06T13:46:41.893Z,26.90
2018-10-06T13:49:10.493Z,27.10
2018-10-06T13:51:39.185Z,27.10
2018-10-06T13:54:08.001Z,27.20
2018-10-06T13:56:36.559Z,27.30
2018-10-06T13:59:05.296Z,27.40
2018-10-06T14:01:33.876Z,27.30
2018-10-06T14:04:02.504Z,27.20
2018-10-06T14:06:31.108Z,27.20
2018-10-06T14:08:59.670Z,27.10
2018-10-06T14:11:28.176Z,27.10
2018-10-06T14:13:56.824Z,27.10
2018-10-06T14:16:25.345Z,27.20
2018-10-06T14:18:54.112Z,27.20
2018-10-06T14:21:22.686Z,27.20
2018-10-06T14:23:51.618Z,27.30
2018-10-06T14:26:20.403Z,27.20
2018-10-06T14:28:55.868Z,27.10
2018-10-06T14:31:24.539Z,27.10
2018-10-06T14:33:53.184Z,27.00
2018-10-06T14:36:22.059Z,27.00
2018-10-06T14:38:50.586Z,26.90
2018-10-06T14:41:20.102Z,26.80
2018-10-06T14:43:48.795Z,26.70
2018-10-06T14:46:17.607Z,26.60
2018-10-06T14:48:46.214Z,26.50
2018-10-06T14:51:15.059Z,26.40
2018-10-06T14:53:43.746Z,26.30
2018-10-06T14:56:12.348Z,26.30
2018-10-06T14:58:40.772Z,26.30
2018-10-06T15:01:09.551Z,26.20
2018-10-06T15:03:38.058Z,26.10
2018-10-06T15:06:06.604Z,26.10
2018-10-06T15:08:35.113Z,26.00
2018-10-06T15:11:03.798Z,26.00
2018-10-06T15:13:32.322Z,25.90
2018-10-06T15:16:00.999Z,25.80
2018-10-06T15:18:29.606Z,25.70
2018-10-06T15:20:58.280Z,25.60
2018-10-06T15:23:26.796Z,25.60
2018-10-06T15:25:55.496Z,25.50
2018-10-06T15:28:24.094Z,25.50
2018-10-06T15:30:52.677Z,25.50
2018-10-06T15:33:21.126Z,25.50
2018-10-06T15:35:49.717Z,25.50
2018-10-06T15:38:18.159Z,25.50
2018-10-06T15:40:46.841Z,25.60
2018-10-06T15:43:15.317Z,25.50
2018-10-06T15:45:43.810Z,25.50
2018-10-06T15:48:12.540Z,25.50
2018-10-06T15:50:41.216Z,25.40
2018-10-06T15:53:09.800Z,25.30
2018-10-06T15:55:38.463Z,25.10
2018-10-06T15:58:07.217Z,25.00
2018-10-06T16:00:35.807Z,25.00
2018-10-06T16:03:04.375Z,24.90
2018-10-06T16:05:32.937Z,24.90
2018-10-06T16:08:01.596Z,24.80
2018-10-06T16:10:30.228Z,24.70
2018-10-06T16:12:58.987Z,24.60
2018-10-06T16:15:27.504Z,24.50
2018-10-06T16:17:56.224Z,24.50
2018-10-06T16:20:24.668Z,24.40
2018-10-06T16:22:53.653Z,24.40
2018-10-06T16:25:22.121Z,24.30
2018-10-06T16:27:50.739Z,24.20
2018-10-06T16:30:19.315Z,24.20
2018-10-06T16:32:48.293Z,24.20
2018-10-06T16:35:16.751Z,24.10
2018-10-06T16:37:45.289Z,24.10
2018-10-06T16:40:13.948Z,24.00
2018-10-06T16:42:42.486Z,24.00
2018-10-06T16:45:11.166Z,23.90
2018-10-06T16:47:39.724Z,23.80
2018-10-06T16:50:08.487Z,23.70
2018-10-06T16:52:37.088Z,23.60
2018-10-06T16:55:05.749Z,23.40
2018-10-06T16:57:34.597Z,23.30
2018-10-06T17:00:03.593Z,23.20
2018-10-06T17:02:32.921Z,23.10
2018-10-06T17:05:02.629Z,23.00
2018-10-06T17:07:32.233Z,22.90
2018-10-06T17:10:01.123Z,22.70
2018-10-06T17:12:30.450Z,22.60
2018-10-06T17:14:59.780Z,22.40
2018-10-06T17:17:29.406Z,22.30
2018-10-06T17:19:59.095Z,22.10
2018-10-06T17:22:28.792Z,21.90
2018-10-06T17:24:58.376Z,21.80
2018-10-06T17:27:27.630Z,21.70
2018-10-06T17:29:56.786Z,21.50
2018-10-06T17:32:26.157Z,21.50
2018-10-06T17:34:55.487Z,21.40
2018-10-06T17:37:24.881Z,21.40
2018-10-06T17:39:54.522Z,21.30
2018-10-06T17:42:23.512Z,21.20
2018-10-06T17:44:52.813Z,21.10
2018-10-06T17:47:21.287Z,21.10
2018-10-06T17:49:49.888Z,21.10
2018-10-06T17:52:18.351Z,21.00
2018-10-06T17:54:46.836Z,21.00
2018-10-06T17:57:15.567Z,20.90
2018-10-06T17:59:44.056Z,20.90
2018-10-06T18:02:12.542Z,20.90
2018-10-06T18:04:41.334Z,20.90
2018-10-06T18:07:09.730Z,20.90
2018-10-06T18:09:38.264Z,20.90
2018-10-06T18:12:06.778Z,20.90
2018-10-06T18:14:35.356Z,20.80
2018-10-06T18:17:03.829Z,20.80
2018-10-06T18:19:32.287Z,20.80
2018-10-06T18:22:01.023Z,20.80
2018-10-06T18:24:29.522Z,20.70
2018-10-06T18:26:58.330Z,20.60
2018-10-06T18:29:27.038Z,20.50
2018-10-06T18:31:55.814Z,20.50
2018-10-06T18:34:24.267Z,20.40
2018-10-06T18:36:52.950Z,20.30
2018-10-06T18:39:21.367Z,20.20
2018-10-06T18:41:50.057Z,20.10
2018-10-06T18:44:18.560Z,20.00
2018-10-06T18:46:47.407Z,19.90
2018-10-06T18:49:16.044Z,19.80
2018-10-06T18:51:44.781Z,19.60
2018-10-06T18:54:13.266Z,19.60
2018-10-06T18:56:41.891Z,19.50
2018-10-06T18:59:10.350Z,19.50
2018-10-06T19:01:39.013Z,19.50
2018-10-06T19:04:07.849Z,19.40
2018-10-06T19:06:36.464Z,19.40
2018-10-06T19:09:06.637Z,19.30
2018-10-06T19:11:35.924Z,19.20
2018-10-06T19:14:04.869Z,19.20
2018-10-06T19:16:33.329Z,19.10
2018-10-06T19:19:02.070Z,19.00
2018-10-06T19:21:30.558Z,18.80
2018-10-06T19:23:59.197Z,18.80
2018-10-06T19:26:27.680Z,18.60
2018-10-06T19:28:56.342Z,18.50
2018-10-06T19:31:24.780Z,18.40
2018-10-06T19:33:53.288Z,18.30
2018-10-06T19:36:21.799Z,18.20
2018-10-06T19:38:50.493Z,18.10
2018-10-06T19:41:18.951Z,18.10
2018-10-06T19:43:47.805Z,17.90
2018-10-06T19:46:16.297Z,17.80
2018-10-06T19:48:44.902Z,17.70
2018-10-06T19:51:13.337Z,17.60
2018-10-06T19:53:41.873Z,17.60
2018-10-06T19:56:10.719Z,17.50
2018-10-06T19:58:39.293Z,17.40
2018-10-06T20:01:07.770Z,17.40
2018-10-06T20:03:36.292Z,17.30
2018-10-06T20:06:04.777Z,17.30
2018-10-06T20:08:35.437Z,17.20
2018-10-06T20:11:04.007Z,17.10
2018-10-06T20:13:32.704Z,17.10
2018-10-06T20:16:01.176Z,17.00
2018-10-06T20:18:29.853Z,17.10
2018-10-06T20:20:58.321Z,17.00
2018-10-06T20:23:26.894Z,17.00
2018-10-06T20:25:55.381Z,17.00
2018-10-06T20:28:30.719Z,16.90
2018-10-06T20:30:59.181Z,16.90
2018-10-06T20:33:27.749Z,16.80
2018-10-06T20:35:56.611Z,16.70
2018-10-06T20:38:25.088Z,16.70
2018-10-06T20:40:54.504Z,16.60
2018-10-06T20:43:23.029Z,16.60
2018-10-06T20:45:51.771Z,16.50
2018-10-06T20:48:20.368Z,16.50
2018-10-06T20:50:48.885Z,16.50
2018-10-06T20:53:17.817Z,16.40
2018-10-06T20:55:46.495Z,16.30
2018-10-06T20:58:14.927Z,16.30
2018-10-06T21:00:43.417Z,16.20
2018-10-06T21:03:11.924Z,16.10
2018-10-06T21:05:40.442Z,16.10
2018-10-06T21:08:08.951Z,16.10
2018-10-06T21:10:37.425Z,16.00
2018-10-06T21:13:06.226Z,15.90
2018-10-06T21:15:34.841Z,15.90
2018-10-06T21:18:03.719Z,15.90
2018-10-06T21:20:33.199Z,15.80
2018-10-06T21:23:01.761Z,15.70
2018-10-06T21:25:30.353Z,15.70
2018-10-06T21:27:58.937Z,15.60
2018-10-06T21:30:27.704Z,15.50
2018-10-06T21:32:56.215Z,15.50
2018-10-06T21:35:24.871Z,15.50
2018-10-06T21:37:53.418Z,15.50
2018-10-06T21:40:22.029Z,15.50
2018-10-06T21:42:50.553Z,15.50
2018-10-06T21:45:19.248Z,15.40
2018-10-06T21:47:47.684Z,15.50
2018-10-06T21:50:16.202Z,15.40
2018-10-06T21:52:44.877Z,15.40
2018-10-06T21:55:13.561Z,15.30
2018-10-06T21:57:42.057Z,15.30
2018-10-06T22:00:10.713Z,15.30
2018-10-06T22:02:39.190Z,15.30
2018-10-06T22:05:07.934Z,15.20
2018-10-06T22:07:36.399Z,15.20
2018-10-06T22:10:05.002Z,15.10
2018-10-06T22:12:33.609Z,15.20
2018-10-06T22:15:02.668Z,15.20
2018-10-06T22:17:31.093Z,15.20
2018-10-06T22:19:59.721Z,15.20
2018-10-06T22:22:28.276Z,15.10
2018-10-06T22:24:56.750Z,15.20
2018-10-06T22:27:25.200Z,15.20
2018-10-06T22:29:53.745Z,15.30
2018-10-06T22:32:22.252Z,15.30
2018-10-06T22:34:50.840Z,15.40
2018-10-06T22:37:19.480Z,15.50
2018-10-06T22:39:48.247Z,15.60
2018-10-06T22:42:16.776Z,15.60
2018-10-06T22:44:46.932Z,15.60
2018-10-06T22:47:15.446Z,15.60
2018-10-06T22:49:43.937Z,15.60
2018-10-06T22:52:12.503Z,15.60
2018-10-06T22:54:41.094Z,15.60
2018-10-06T22:57:09.649Z,15.50
2018-10-06T22:59:38.109Z,15.50
2018-10-06T23:02:06.732Z,15.50
2018-10-06T23:04:35.265Z,15.60
2018-10-06T23:07:03.798Z,15.60
2018-10-06T23:09:32.479Z,15.60
2018-10-06T23:12:01.301Z,15.60
2018-10-06T23:14:29.984Z,15.60
2018-10-06T23:16:58.412Z,15.60
2018-10-06T23:19:26.928Z,15.60
2018-10-06T23:21:55.351Z,15.60
2018-10-06T23:24:23.961Z,15.70
2018-10-06T23:26:52.498Z,15.70
2018-10-06T23:29:21.112Z,15.80
2018-10-06T23:31:49.584Z,15.80
2018-10-06T23:34:18.017Z,15.80
2018-10-06T23:36:46.526Z,15.90
2018-10-06T23:39:15.285Z,15.90
2018-10-06T23:41:43.760Z,16.00
2018-10-06T23:44:12.481Z,16.00
2018-10-06T23:46:41.029Z,16.10
2018-10-06T23:49:10.172Z,16.10
2018-10-06T23:51:38.783Z,16.10
2018-10-06T23:54:07.370Z,16.00
2018-10-06T23:56:35.877Z,16.00
2018-10-06T23:59:04.579Z,16.00
